Time,TemperatureF,DewpointF,PressureIn,WindDirection,WindDirectionDegrees,WindSpeedMPH,WindSpeedGustMPH,Humidity,HourlyPrecipIn,Conditions,Clouds,dailyrainin,SoftwareType,DateUTC
2013-06-11 00:04:00,64.4,64.4,29.91,North,0,0.0,0.0,100,0.00,,SCT090,0.00,VWS V14.01,2013-06-11 04:04:00,
2013-06-11 00:15:00,64.4,64.4,29.91,North,0,0.0,0.0,100,0.00,,CLR,0.00,VWS V14.01,2013-06-11 04:15:00,
2013-06-11 00:19:00,64.4,64.4,29.91,North,0,0.0,0.0,100,0.00,,CLR,0.00,VWS V14.01,2013-06-11 04:19:00,
2013-06-11 00:24:00,64.4,64.4,29.91,North,0,0.0,0.0,100,0.00,,CLR,0.00,VWS V14.01,2013-06-11 04:24:00,
2013-06-11 00:35:00,64.4,64.4,29.90,North,0,0.0,0.0,100,0.00,,SCT110,0.00,VWS V14.01,2013-06-11 04:35:00,
2013-06-11 00:39:00,64.4,64.4,29.90,North,0,0.0,0.0,100,0.00,,SCT110,0.00,VWS V14.01,2013-06-11 04:39:00,
2013-06-11 00:44:00,64.4,64.4,29.90,North,0,0.0,0.0,100,0.00,,SCT110,0.00,VWS V14.01,2013-06-11 04:44:00,
2013-06-11 00:55:00,64.4,64.4,29.89,North,0,0.0,0.0,100,0.00,,BKN120,0.00,VWS V14.01,2013-06-11 04:55:00,
2013-06-11 00:59:00,64.4,64.4,29.89,North,0,0.0,0.0,100,0.00,,BKN120,0.00,VWS V14.01,2013-06-11 04:59:00,
2013-06-11 01:04:00,64.4,64.4,29.89,North,0,0.0,0.0,100,0.00,,BKN120,0.00,VWS V14.01,2013-06-11 05:04:00,
2013-06-11 01:15:00,68.0,68.0,29.90,West,260,4.0,4.0,100,0.00,,OVC120,0.00,VWS V14.01,2013-06-11 05:15:00,
2013-06-11 01:19:00,68.0,68.0,29.90,West,260,4.0,4.0,100,0.00,,OVC120,0.00,VWS V14.01,2013-06-11 05:19:00,
2013-06-11 01:24:00,68.0,68.0,29.90,West,260,4.0,4.0,100,0.00,,OVC120,0.00,VWS V14.01,2013-06-11 05:24:00,
2013-06-11 01:35:00,68.0,66.2,29.92,WNW,300,4.0,4.0,94,0.00,,RA,0.00,VWS V14.01,2013-06-11 05:35:00,
2013-06-11 01:39:00,68.0,66.2,29.92,WNW,300,4.0,4.0,94,0.00,,RA,0.00,VWS V14.01,2013-06-11 05:39:00,
2013-06-11 01:44:00,68.0,66.2,29.92,WNW,300,4.0,4.0,94,0.00,,RA,0.00,VWS V14.01,2013-06-11 05:44:00,
2013-06-11 01:55:00,68.0,66.2,29.91,North,0,0.0,0.0,94,0.01,,OVC075,0.01,VWS V14.01,2013-06-11 05:55:00,
2013-06-11 01:59:00,68.0,66.2,29.91,North,0,0.0,4.0,94,0.01,,OVC075,0.01,VWS V14.01,2013-06-11 05:59:00,
2013-06-11 02:04:00,68.0,66.2,29.91,North,0,0.0,0.0,94,0.01,,OVC075,0.01,VWS V14.01,2013-06-11 06:04:00,
2013-06-11 02:15:00,68.0,64.3,29.90,SSW,210,6.0,6.0,88,0.04,, +RA,0.04,VWS V14.01,2013-06-11 06:15:00,
2013-06-11 02:19:00,68.0,64.3,29.90,SSW,210,6.0,6.0,88,0.01,, +RA,0.04,VWS V14.01,2013-06-11 06:19:00,
2013-06-11 02:24:00,68.0,64.3,29.90,SSW,210,6.0,6.0,88,0.04,, +RA,0.04,VWS V14.01,2013-06-11 06:24:00,
2013-06-11 02:35:00,66.2,66.2,29.90,North,0,0.0,0.0,100,0.05,,OVC095,0.05,VWS V14.01,2013-06-11 06:35:00,
2013-06-11 02:39:00,66.2,66.2,29.90,North,0,0.0,6.0,100,0.05,,OVC095,0.05,VWS V14.01,2013-06-11 06:39:00,
2013-06-11 02:44:00,66.2,66.2,29.90,North,0,0.0,0.0,100,0.05,,OVC095,0.05,VWS V14.01,2013-06-11 06:44:00,
2013-06-11 02:55:00,66.2,66.2,29.91,North,0,0.0,0.0,100,0.04,,SCT110,0.05,VWS V14.01,2013-06-11 06:55:00,
2013-06-11 02:59:00,66.2,66.2,29.91,North,0,0.0,0.0,100,0.05,,SCT110,0.05,VWS V14.01,2013-06-11 06:59:00,
2013-06-11 03:04:00,66.2,66.2,29.91,North,0,0.0,0.0,100,0.04,,SCT110,0.05,VWS V14.01,2013-06-11 07:04:00,
2013-06-11 03:15:00,66.2,66.2,29.90,North,0,0.0,0.0,100,0.00,,BKN090,0.00,VWS V14.01,2013-06-11 07:15:00,
2013-06-11 03:19:00,66.2,66.2,29.91,North,0,0.0,0.0,100,0.04,,BKN090,0.05,VWS V14.01,2013-06-11 07:19:00,
2013-06-11 03:24:00,66.2,66.2,29.90,North,0,0.0,0.0,100,0.00,,BKN090,0.00,VWS V14.01,2013-06-11 07:24:00,
2013-06-11 03:35:00,66.2,66.2,29.90,WSW,240,4.0,4.0,100,0.00,,BKN090,0.00,VWS V14.01,2013-06-11 07:35:00,
2013-06-11 03:38:00,66.2,66.2,29.90,WSW,240,4.0,4.0,100,0.00,,BKN090,0.00,VWS V14.01,2013-06-11 07:38:00,
2013-06-11 03:43:00,66.2,66.2,29.90,WSW,240,4.0,4.0,100,0.00,,BKN090,0.00,VWS V14.01,2013-06-11 07:43:00,
2013-06-11 03:55:00,66.2,66.2,29.89,SW,230,5.0,5.0,100,0.00,,SCT100,0.00,VWS V14.01,2013-06-11 07:55:00,
2013-06-11 03:59:00,66.2,66.2,29.89,SW,230,5.0,5.0,100,0.00,,SCT100,0.00,VWS V14.01,2013-06-11 07:59:00,
2013-06-11 04:04:00,66.2,66.2,29.89,SW,230,5.0,5.0,100,0.00,,SCT100,0.00,VWS V14.01,2013-06-11 08:04:00,
2013-06-11 04:15:00,66.2,66.2,29.90,WSW,240,3.0,3.0,100,0.00,,CLR,0.00,VWS V14.01,2013-06-11 08:15:00,
2013-06-11 04:19:00,66.2,66.2,29.90,WSW,240,3.0,5.0,100,0.00,,CLR,0.00,VWS V14.01,2013-06-11 08:19:00,
2013-06-11 04:24:00,66.2,66.2,29.90,WSW,240,3.0,3.0,100,0.00,,CLR,0.00,VWS V14.01,2013-06-11 08:24:00,
2013-06-11 04:35:00,66.2,66.2,29.90,North,0,0.0,0.0,100,0.00,,BKN085,0.00,VWS V14.01,2013-06-11 08:35:00,
2013-06-11 04:41:00,66.2,66.2,29.90,North,0,0.0,3.0,100,0.00,,BKN085,0.00,VWS V14.01,2013-06-11 08:41:00,
2013-06-11 04:55:00,64.4,64.4,29.89,North,0,0.0,0.0,100,0.00,,SCT085,0.00,VWS V14.01,2013-06-11 08:55:00,
2013-06-11 04:59:00,64.4,64.4,29.89,North,0,0.0,0.0,100,0.00,,SCT085,0.00,VWS V14.01,2013-06-11 08:59:00,
2013-06-11 05:04:00,64.4,64.4,29.89,North,0,0.0,0.0,100,0.00,,SCT085,0.00,VWS V14.01,2013-06-11 09:04:00,
2013-06-11 05:51:00,64.4,64.4,29.89,North,0,0.0,0.0,100,0.00,,SCT085,0.00,VWS V14.01,2013-06-11 09:51:00,
2013-06-11 05:56:00,64.4,64.4,29.89,North,0,0.0,0.0,100,0.00,,SCT085,0.00,VWS V14.01,2013-06-11 09:56:00,
2013-06-11 06:01:00,64.4,64.4,29.89,North,0,0.0,0.0,100,0.00,,SCT085,0.00,VWS V14.01,2013-06-11 10:01:00,
2013-06-11 06:11:00,64.4,64.4,29.89,North,0,0.0,0.0,100,0.00,,SCT085,0.00,VWS V14.01,2013-06-11 10:11:00,
2013-06-11 09:49:00,64.4,64.4,29.89,North,0,0.0,0.0,100,0.00,,SCT085,0.00,VWS V14.01,2013-06-11 13:49:00,
2013-06-11 09:53:00,75.2,62.6,29.90,WNW,290,9.0,9.0,65,0.00,,SCT085,0.00,VWS V14.01,2013-06-11 13:53:00,
2013-06-11 10:29:00,75.2,62.6,29.90,WNW,290,9.0,9.0,65,0.00,,SCT085,0.00,VWS V14.01,2013-06-11 14:29:00,
2013-06-11 10:50:00,75.2,62.6,29.90,WNW,290,9.0,9.0,65,0.00,,SCT085,0.00,VWS V14.01,2013-06-11 14:50:00,
2013-06-11 10:53:00,77.0,59.1,29.91,WNW,290,8.0,8.0,54,0.00,,SCT085,0.00,VWS V14.01,2013-06-11 14:53:00,
2013-06-11 10:55:00,75.2,62.6,29.90,WNW,290,9.0,9.0,65,0.00,,SCT085,0.00,VWS V14.01,2013-06-11 14:55:00,
2013-06-11 11:00:00,77.0,59.1,29.91,WNW,290,8.0,9.0,54,0.00,,SCT085,0.00,VWS V14.01,2013-06-11 15:00:00,
2013-06-11 11:50:00,77.0,59.1,29.91,WNW,290,8.0,8.0,54,0.00,,SCT085,0.00,VWS V14.01,2013-06-11 15:50:00,
2013-06-11 11:53:00,78.8,60.8,29.91,WSW,250,5.0,5.0,54,0.00,,SCT055,0.00,VWS V14.01,2013-06-11 15:53:00,
2013-06-11 11:55:00,77.0,59.1,29.91,WNW,290,8.0,8.0,54,0.00,,SCT085,0.00,VWS V14.01,2013-06-11 15:55:00,
2013-06-11 12:00:00,78.8,60.8,29.91,WSW,250,5.0,5.0,54,0.00,,SCT085,0.00,VWS V14.01,2013-06-11 16:00:00,
2013-06-11 12:15:00,78.8,60.8,29.91,WSW,250,5.0,5.0,54,0.00,,SCT055,0.00,VWS V14.01,2013-06-11 16:15:00,
2013-06-11 12:50:00,78.8,60.8,29.91,WSW,250,5.0,5.0,54,0.00,,SCT055,0.00,VWS V14.01,2013-06-11 16:50:00,
2013-06-11 12:53:00,80.6,60.8,29.90,North,0,4.0,4.0,51,0.00,,CLR,0.00,VWS V14.01,2013-06-11 16:53:00,
2013-06-11 12:55:00,78.8,60.8,29.91,WSW,250,5.0,5.0,54,0.00,,SCT055,0.00,VWS V14.01,2013-06-11 16:55:00,
2013-06-11 13:00:00,80.6,60.8,29.90,North,0,4.0,4.0,51,0.00,,SCT055,0.00,VWS V14.01,2013-06-11 17:00:00,
2013-06-11 13:50:00,80.6,60.8,29.90,North,0,4.0,4.0,51,0.00,,CLR,0.00,VWS V14.01,2013-06-11 17:50:00,
2013-06-11 13:53:00,82.4,59.0,29.89,North,0,5.0,5.0,45,0.00,,SCT060,0.00,VWS V14.01,2013-06-11 17:53:00,
2013-06-11 13:55:00,80.6,60.8,29.90,North,0,4.0,4.0,51,0.00,,CLR,0.00,VWS V14.01,2013-06-11 17:55:00,
2013-06-11 14:00:00,82.4,59.0,29.89,North,0,5.0,5.0,45,0.00,,SCT060,0.00,VWS V14.01,2013-06-11 18:00:00,
2013-06-11 14:50:00,82.4,59.0,29.89,North,0,5.0,5.0,45,0.00,,CLR,0.00,VWS V14.01,2013-06-11 18:50:00,
2013-06-11 14:53:00,80.6,59.1,29.89,North,0,0.0,0.0,48,0.00,,SCT080,0.00,VWS V14.01,2013-06-11 18:53:00,
2013-06-11 14:55:00,82.4,59.0,29.89,North,0,5.0,5.0,45,0.00,,CLR,0.00,VWS V14.01,2013-06-11 18:55:00,
2013-06-11 15:00:00,80.6,59.1,29.89,North,0,0.0,0.0,48,0.00,,SCT080,0.00,VWS V14.01,2013-06-11 19:00:00,
2013-06-11 15:15:00,84.2,59.3,29.94,West,280,5.0,5.0,43,0.00,,SCT080,0.00,VWS V14.01,2013-06-11 19:15:00,
2013-06-11 15:19:00,82.4,57.0,29.94,West,270,3.0,3.0,42,0.00,,SCT080,0.00,VWS V14.01,2013-06-11 19:19:00,
2013-06-11 15:24:00,84.2,59.3,29.94,West,280,5.0,5.0,43,0.00,,SCT080,0.00,VWS V14.01,2013-06-11 19:24:00,
2013-06-11 15:35:00,84.2,57.3,29.94,NW,320,8.0,8.0,40,0.00,,SCT065,0.00,VWS V14.01,2013-06-11 19:35:00,
2013-06-11 15:38:00,84.2,57.3,29.94,NW,320,8.0,8.0,40,0.00,,SCT065,0.00,VWS V14.01,2013-06-11 19:38:00,
2013-06-11 15:43:00,84.2,57.3,29.94,NW,320,8.0,8.0,40,0.00,,SCT065,0.00,VWS V14.01,2013-06-11 19:43:00,
2013-06-11 15:55:00,84.2,59.3,29.93,NNW,340,6.0,6.0,43,0.00,,SCT060,0.00,VWS V14.01,2013-06-11 19:55:00,
2013-06-11 16:01:00,84.2,59.3,29.93,NNW,340,6.0,8.0,43,0.00,,SCT060,0.00,VWS V14.01,2013-06-11 20:01:00,
2013-06-11 16:15:00,84.2,57.3,29.93,NW,320,8.0,8.0,40,0.00,,CLR,0.00,VWS V14.01,2013-06-11 20:15:00,
2013-06-11 16:19:00,84.2,57.3,29.93,NW,320,8.0,8.0,40,0.00,,CLR,0.00,VWS V14.01,2013-06-11 20:19:00,
2013-06-11 16:24:00,84.2,57.3,29.93,NW,320,8.0,8.0,40,0.00,,CLR,0.00,VWS V14.01,2013-06-11 20:24:00,
2013-06-11 16:35:00,84.2,57.3,29.93,NNW,330,8.0,8.0,40,0.00,,CLR,0.00,VWS V14.01,2013-06-11 20:35:00,
2013-06-11 16:39:00,84.2,57.3,29.93,NNW,330,8.0,8.0,40,0.00,,CLR,0.00,VWS V14.01,2013-06-11 20:39:00,
2013-06-11 16:44:00,84.2,57.3,29.93,NNW,330,8.0,8.0,40,0.00,,CLR,0.00,VWS V14.01,2013-06-11 20:44:00,
2013-06-11 16:55:00,84.2,57.3,29.92,NNW,340,10.0,10.0,40,0.00,,CLR,0.00,VWS V14.01,2013-06-11 20:55:00,
2013-06-11 16:59:00,84.2,57.3,29.92,NNW,340,10.0,10.0,40,0.00,,CLR,0.00,VWS V14.01,2013-06-11 20:59:00,
2013-06-11 17:04:00,84.2,57.3,29.92,NNW,340,10.0,10.0,40,0.00,,CLR,0.00,VWS V14.01,2013-06-11 21:04:00,
2013-06-11 17:15:00,84.2,57.3,29.91,NNW,330,6.0,6.0,40,0.00,,CLR,0.00,VWS V14.01,2013-06-11 21:15:00,
2013-06-11 17:19:00,84.2,57.3,29.91,NNW,330,6.0,10.0,40,0.00,,CLR,0.00,VWS V14.01,2013-06-11 21:19:00,
2013-06-11 17:24:00,84.2,57.3,29.91,NNW,330,6.0,6.0,40,0.00,,CLR,0.00,VWS V14.01,2013-06-11 21:24:00,
2013-06-11 17:35:00,84.2,57.3,29.91,NW,320,6.0,6.0,40,0.00,,CLR,0.00,VWS V14.01,2013-06-11 21:35:00,
2013-06-11 17:39:00,84.2,57.3,29.91,NW,320,6.0,6.0,40,0.00,,CLR,0.00,VWS V14.01,2013-06-11 21:39:00,
2013-06-11 17:44:00,84.2,57.3,29.91,NW,320,6.0,6.0,40,0.00,,CLR,0.00,VWS V14.01,2013-06-11 21:44:00,
2013-06-11 17:55:00,84.2,57.3,29.91,NW,320,5.0,5.0,40,0.00,,CLR,0.00,VWS V14.01,2013-06-11 21:55:00,
2013-06-11 17:58:00,84.2,57.3,29.91,NW,320,5.0,6.0,40,0.00,,CLR,0.00,VWS V14.01,2013-06-11 21:58:00,
2013-06-11 18:03:00,84.2,57.3,29.91,NW,320,5.0,5.0,40,0.00,,CLR,0.00,VWS V14.01,2013-06-11 22:03:00,
2013-06-11 18:15:00,84.2,57.3,29.91,NW,320,4.0,4.0,40,0.00,,SCT060,0.00,VWS V14.01,2013-06-11 22:15:00,
2013-06-11 18:19:00,84.2,57.3,29.91,NW,320,4.0,5.0,40,0.00,,SCT060,0.00,VWS V14.01,2013-06-11 22:19:00,
2013-06-11 18:24:00,84.2,57.3,29.91,NW,320,4.0,4.0,40,0.00,,SCT060,0.00,VWS V14.01,2013-06-11 22:24:00,
2013-06-11 18:35:00,84.2,57.3,29.91,NW,310,4.0,4.0,40,0.00,,SCT060,0.00,VWS V14.01,2013-06-11 22:35:00,
2013-06-11 18:39:00,84.2,57.3,29.91,NW,310,4.0,4.0,40,0.00,,SCT060,0.00,VWS V14.01,2013-06-11 22:39:00,
2013-06-11 18:44:00,84.2,57.3,29.91,NW,310,4.0,4.0,40,0.00,,SCT060,0.00,VWS V14.01,2013-06-11 22:44:00,
2013-06-11 18:53:00,82.4,59.0,29.87,NW,310,5.0,5.0,45,0.00,,BKN060,0.00,VWS V14.01,2013-06-11 22:53:00,
2013-06-11 18:55:00,84.2,57.3,29.92,NW,310,4.0,4.0,40,0.00,,BKN060,0.00,VWS V14.01,2013-06-11 22:55:00,
2013-06-11 18:59:00,84.2,57.3,29.92,NW,310,4.0,4.0,40,0.00,,BKN060,0.00,VWS V14.01,2013-06-11 22:59:00,
2013-06-11 19:04:00,84.2,57.3,29.92,NW,310,4.0,4.0,40,0.00,,BKN060,0.00,VWS V14.01,2013-06-11 23:04:00,
2013-06-11 19:15:00,84.2,59.3,29.92,NW,320,3.0,3.0,43,0.00,,BKN060,0.00,VWS V14.01,2013-06-11 23:15:00,
2013-06-11 19:19:00,84.2,57.3,29.92,NW,310,4.0,4.0,40,0.00,,BKN060,0.00,VWS V14.01,2013-06-11 23:19:00,
2013-06-11 19:24:00,84.2,59.3,29.92,NW,320,3.0,3.0,43,0.00,,BKN060,0.00,VWS V14.01,2013-06-11 23:24:00,
2013-06-11 19:35:00,82.4,60.8,29.93,WNW,290,3.0,3.0,48,0.00,,SCT060,0.00,VWS V14.01,2013-06-11 23:35:00,
2013-06-11 19:42:00,82.4,60.8,29.93,WNW,290,3.0,3.0,48,0.00,,SCT060,0.00,VWS V14.01,2013-06-11 23:42:00,
2013-06-11 19:55:00,78.8,66.1,29.92,North,0,0.0,0.0,65,0.00,,CLR,0.00,VWS V14.01,2013-06-11 23:55:00,
2013-06-11 19:59:00,78.8,66.1,29.92,North,0,0.0,3.0,65,0.00,,CLR,0.00,VWS V14.01,2013-06-11 23:59:00,
2013-06-11 20:04:00,78.8,66.1,29.92,North,0,0.0,0.0,65,0.00,,CLR,0.00,VWS V14.01,2013-06-12 00:04:00,
2013-06-11 20:15:00,75.2,69.7,29.92,North,0,0.0,0.0,83,0.00,,CLR,0.00,VWS V14.01,2013-06-12 00:15:00,
2013-06-11 20:19:00,75.2,69.7,29.92,North,0,0.0,0.0,83,0.00,,CLR,0.00,VWS V14.01,2013-06-12 00:19:00,
2013-06-11 20:24:00,75.2,69.7,29.92,North,0,0.0,0.0,83,0.00,,CLR,0.00,VWS V14.01,2013-06-12 00:24:00,
2013-06-11 20:35:00,71.6,67.9,29.92,North,0,0.0,0.0,88,0.00,,CLR,0.00,VWS V14.01,2013-06-12 00:35:00,
2013-06-11 20:39:00,71.6,67.9,29.92,North,0,0.0,0.0,88,0.00,,CLR,0.00,VWS V14.01,2013-06-12 00:39:00,
2013-06-11 20:44:00,71.6,67.9,29.92,North,0,0.0,0.0,88,0.00,,CLR,0.00,VWS V14.01,2013-06-12 00:44:00,
2013-06-11 20:55:00,69.8,68.0,29.93,North,0,0.0,0.0,94,0.00,,CLR,0.00,VWS V14.01,2013-06-12 00:55:00,
2013-06-11 21:01:00,69.8,68.0,29.93,North,0,0.0,0.0,94,0.00,,CLR,0.00,VWS V14.01,2013-06-12 01:01:00,
2013-06-11 21:15:00,68.0,66.2,29.93,North,0,0.0,0.0,94,0.00,,CLR,0.00,VWS V14.01,2013-06-12 01:15:00,
2013-06-11 21:19:00,69.8,68.0,29.93,North,0,0.0,0.0,94,0.00,,CLR,0.00,VWS V14.01,2013-06-12 01:19:00,
2013-06-11 21:24:00,68.0,66.2,29.93,North,0,0.0,0.0,94,0.00,,CLR,0.00,VWS V14.01,2013-06-12 01:24:00,
2013-06-11 21:29:00,68.0,66.2,29.93,North,0,0.0,0.0,94,0.00,,CLR,0.00,VWS V14.01,2013-06-12 01:29:00,
2013-06-11 21:35:00,66.2,64.4,29.93,North,0,0.0,0.0,94,0.00,,CLR,0.00,VWS V14.01,2013-06-12 01:35:00,
2013-06-11 21:38:00,66.2,64.4,29.93,North,0,0.0,0.0,94,0.00,,CLR,0.00,VWS V14.01,2013-06-12 01:38:00,
2013-06-11 21:43:00,66.2,64.4,29.93,North,0,0.0,0.0,94,0.00,,CLR,0.00,VWS V14.01,2013-06-12 01:43:00,
2013-06-11 21:55:00,66.2,64.4,29.94,North,0,0.0,0.0,94,0.00,,CLR,0.00,VWS V14.01,2013-06-12 01:55:00,
2013-06-11 21:59:00,66.2,64.4,29.94,North,0,0.0,0.0,94,0.00,,CLR,0.00,VWS V14.01,2013-06-12 01:59:00,
2013-06-11 22:04:00,66.2,64.4,29.94,North,0,0.0,0.0,94,0.00,,CLR,0.00,VWS V14.01,2013-06-12 02:04:00,
2013-06-11 22:15:00,64.4,64.4,29.95,North,0,0.0,0.0,100,0.00,,CLR,0.00,VWS V14.01,2013-06-12 02:15:00,
2013-06-11 22:19:00,64.4,64.4,29.95,North,0,0.0,0.0,100,0.00,,CLR,0.00,VWS V14.01,2013-06-12 02:19:00,
2013-06-11 22:24:00,64.4,64.4,29.95,North,0,0.0,0.0,100,0.00,,CLR,0.00,VWS V14.01,2013-06-12 02:24:00,
2013-06-11 22:35:00,64.4,64.4,29.96,North,0,0.0,0.0,100,0.00,,CLR,0.00,VWS V14.01,2013-06-12 02:35:00,
2013-06-11 22:39:00,64.4,64.4,29.96,North,0,0.0,0.0,100,0.00,,CLR,0.00,VWS V14.01,2013-06-12 02:39:00,
2013-06-11 22:44:00,64.4,64.4,29.96,North,0,0.0,0.0,100,0.00,,CLR,0.00,VWS V14.01,2013-06-12 02:44:00,
2013-06-11 22:55:00,62.6,62.6,29.96,North,0,0.0,0.0,100,0.00,,CLR,0.00,VWS V14.01,2013-06-12 02:55:00,
2013-06-11 22:59:00,62.6,62.6,29.96,North,0,0.0,0.0,100,0.00,,CLR,0.00,VWS V14.01,2013-06-12 02:59:00,
2013-06-11 23:04:00,62.6,62.6,29.96,North,0,0.0,0.0,100,0.00,,CLR,0.00,VWS V14.01,2013-06-12 03:04:00,
2013-06-11 23:15:00,62.6,62.6,29.96,North,0,0.0,0.0,100,0.00,,CLR,0.00,VWS V14.01,2013-06-12 03:15:00,
2013-06-11 23:21:00,62.6,62.6,29.96,North,0,0.0,0.0,100,0.00,,CLR,0.00,VWS V14.01,2013-06-12 03:21:00,
2013-06-11 23:35:00,62.6,62.6,29.96,North,0,0.0,0.0,100,0.00,,CLR,0.00,VWS V14.01,2013-06-12 03:35:00,
2013-06-11 23:39:00,62.6,62.6,29.96,North,0,0.0,0.0,100,0.00,,CLR,0.00,VWS V14.01,2013-06-12 03:39:00,
2013-06-11 23:44:00,62.6,62.6,29.96,North,0,0.0,0.0,100,0.00,,CLR,0.00,VWS V14.01,2013-06-12 03:44:00,
2013-06-11 23:55:00,62.6,62.6,29.96,West,260,3.0,3.0,100,0.00,,CLR,0.00,VWS V14.01,2013-06-12 03:55:00,
2013-06-11 23:59:00,62.6,62.6,29.96,West,260,3.0,3.0,100,0.00,,CLR,0.00,VWS V14.01,2013-06-12 03:59:00,